KPQI

Northern Maine Regional Arpt at Presque Is Airport

Presque Isle, Maine, USA
METAR KPQI 230556Z AUTO 27005KT 10SM CLR M03/M08 A3015 RMK AO2 SLP255 T10331078 10006 21033 51008 FZRANO
Observed Flight Rules
Oct-23 @ 05:56 UTC (20 minutes ago) Visual Flight Rules
Wind Visibility Clouds
270° at 5 knots 10 miles
  • Clear skies
Temperatures Readings
Current -3°C / 27°F
Dewpoint -8°C / 18°F
Humidity 69%
Altimeter 30.15" Hg
Pressure 1025.5 hPa
Elevation 146
METAR KPQI 230556Z AUTO 27005KT 10SM CLR M03/M08 A3015 RMK AO2 SLP255 T10331078 10006 21033 51008 FZRANO
Observed Flight Rules
Oct-23 @ 05:56 UTC
(20 minutes ago)
VFR
Wind Visibility
270° at 5 knots 10 miles
Clouds
  • Clear skies
Temperature Dewpoint
-3°C / 27°F -8°C / 18°F
Humidity Altimeter Pressure
69% 30.15" Hg 1025.5 hPa